地図

経路データ

SID SEASON NUMBER BASIN SUBBASIN NAME ISO_TIME NATURE LAT LON WMO_WIND WMO_PRES WMO_AGENCY TRACK_TYPE DIST2LAND LANDFALL IFLAG USA_AGENCY USA_ATCF_ID USA_LAT USA_LON USA_RECORD USA_STATUS USA_WIND USA_PRES USA_SSHS USA_R34_NE USA_R34_SE USA_R34_SW USA_R34_NW USA_R50_NE USA_R50_SE USA_R50_SW USA_R50_NW USA_R64_NE USA_R64_SE USA_R64_SW USA_R64_NW USA_POCI USA_ROCI USA_RMW USA_EYE TOKYO_LAT TOKYO_LON TOKYO_GRADE TOKYO_WIND TOKYO_PRES TOKYO_R50_DIR TOKYO_R50_LONG TOKYO_R50_SHORT TOKYO_R30_DIR TOKYO_R30_LONG TOKYO_R30_SHORT TOKYO_LAND CMA_LAT CMA_LON CMA_CAT CMA_WIND CMA_PRES HKO_LAT HKO_LON HKO_CAT HKO_WIND HKO_PRES NEWDELHI_LAT NEWDELHI_LON NEWDELHI_GRADE NEWDELHI_WIND NEWDELHI_PRES NEWDELHI_CI NEWDELHI_DP NEWDELHI_POCI REUNION_LAT REUNION_LON REUNION_TYPE REUNION_WIND REUNION_PRES REUNION_TNUM REUNION_CI REUNION_RMW REUNION_R34_NE REUNION_R34_SE REUNION_R34_SW REUNION_R34_NW REUNION_R50_NE REUNION_R50_SE REUNION_R50_SW REUNION_R50_NW REUNION_R64_NE REUNION_R64_SE REUNION_R64_SW REUNION_R64_NW BOM_LAT BOM_LON BOM_TYPE BOM_WIND BOM_PRES BOM_TNUM BOM_CI BOM_RMW BOM_R34_NE BOM_R34_SE BOM_R34_SW BOM_R34_NW BOM_R50_NE BOM_R50_SE BOM_R50_SW BOM_R50_NW BOM_R64_NE BOM_R64_SE BOM_R64_SW BOM_R64_NW BOM_ROCI BOM_POCI BOM_EYE BOM_POS_METHOD BOM_PRES_METHOD NADI_LAT NADI_LON NADI_CAT NADI_WIND NADI_PRES WELLINGTON_LAT WELLINGTON_LON WELLINGTON_WIND WELLINGTON_PRES DS824_LAT DS824_LON DS824_STAGE DS824_WIND DS824_PRES TD9636_LAT TD9636_LON TD9636_STAGE TD9636_WIND TD9636_PRES TD9635_LAT TD9635_LON TD9635_WIND TD9635_PRES TD9635_ROCI NEUMANN_LAT NEUMANN_LON NEUMANN_CLASS NEUMANN_WIND NEUMANN_PRES MLC_LAT MLC_LON MLC_CLASS MLC_WIND MLC_PRES USA_GUST BOM_GUST BOM_GUST_PER REUNION_GUST REUNION_GUST_PER USA_SEAHGT USA_SEARAD_NE USA_SEARAD_SE USA_SEARAD_SW USA_SEARAD_NW STORM_SPEED STORM_DIR
1891266N14330 1891 39 NA NA NOT_NAMED 1891-09-23 00:00:00 TS 14.2000 -30.5000 main 1401 1401 _____________O -1 14.2000 -30.5000 TD 30 15 279
1891266N14330 1891 39 NA NA NOT_NAMED 1891-09-23 03:00:00 TS 14.3130 -31.2498 main 1476 1476 _____________P -1 14.3130 -31.2498 TD 30 15 278
1891266N14330 1891 39 NA NA NOT_NAMED 1891-09-23 06:00:00 TS 14.4000 -32.0000 main 1561 1561 _____________O -1 14.4000 -32.0000 TD 30 15 275
1891266N14330 1891 39 NA NA NOT_NAMED 1891-09-23 09:00:00 TS 14.4498 -32.7502 main 1647 1646 _____________P -1 14.4498 -32.7502 TD 30 15 274
1891266N14330 1891 39 NA NA NOT_NAMED 1891-09-23 12:00:00 TS 14.5000 -33.5000 main 1722 1722 _____________O -1 14.5000 -33.5000 TD 30 15 276
1891266N14330 1891 39 NA NA NOT_NAMED 1891-09-23 15:00:00 TS 14.5998 -34.2574 main 1807 1807 _____________P -1 14.5998 -34.2574 TD 30 15 278
1891266N14330 1891 39 NA NA NOT_NAMED 1891-09-23 18:00:00 TS 14.7000 -35.0000 main 1882 1882 _____________O -1 14.7000 -35.0000 TD 30 14 276
1891266N14330 1891 39 NA NA NOT_NAMED 1891-09-23 21:00:00 TS 14.7422 -35.7078 main 1957 1957 _____________P -1 14.7422 -35.7078 TD 32 14 274
1891266N14330 1891 39 NA NA NOT_NAMED 1891-09-24 00:00:00 TS 14.8000 -36.4000 main 2012 1956 _____________O -1 14.8000 -36.4000 TS 35 14 278
1891266N14330 1891 39 NA NA NOT_NAMED 1891-09-24 03:00:00 TS 14.9348 -37.1000 main 1956 1910 _____________P -1 14.9348 -37.1000 TS 37 14 283
1891266N14330 1891 39 NA NA NOT_NAMED 1891-09-24 06:00:00 TS 15.1000 -37.8000 main 1910 1858 _____________O -1 15.1000 -37.8000 TS 40 14 283
1891266N14330 1891 39 NA NA NOT_NAMED 1891-09-24 09:00:00 TS 15.2498 -38.5001 main 1858 1816 _____________P -1 15.2498 -38.5001 TS 45 14 283
1891266N14330 1891 39 NA NA NOT_NAMED 1891-09-24 12:00:00 TS 15.4000 -39.2000 main 1816 1769 _____________O -1 15.4000 -39.2000 TS 50 14 283
1891266N14330 1891 39 NA NA NOT_NAMED 1891-09-24 15:00:00 TS 15.5498 -39.9001 main 1769 1732 _____________P -1 15.5498 -39.9001 TS 55 14 283
1891266N14330 1891 39 NA NA NOT_NAMED 1891-09-24 18:00:00 TS 15.7000 -40.6000 main 1732 1689 _____________O -1 15.7000 -40.6000 TS 60 14 282
1891266N14330 1891 39 NA NA NOT_NAMED 1891-09-24 21:00:00 TS 15.8498 -41.3076 main 1689 1658 _____________P -1 15.8498 -41.3076 TS 60 14 283
1891266N14330 1891 39 NA NA NOT_NAMED 1891-09-25 00:00:00 TS 16.0000 -42.0000 main 1658 1628 _____________O -1 16.0000 -42.0000 TS 60 13 283
1891266N14330 1891 39 NA NA NOT_NAMED 1891-09-25 03:00:00 TS 16.1573 -42.6650 main 1630 1603 _____________P -1 16.1573 -42.6650 TS 65 13 284
1891266N14330 1891 39 NA NA NOT_NAMED 1891-09-25 06:00:00 TS 16.3000 -43.3000 main 1603 1573 _____________O -1 16.3000 -43.3000 HU 70 12 282
1891266N14330 1891 39 NA NA NOT_NAMED 1891-09-25 09:00:00 TS 16.3997 -43.9002 main 1573 1543 _____________P -1 16.3997 -43.9002 HU 72 12 280
1891266N14330 1891 39 NA NA NOT_NAMED 1891-09-25 12:00:00 TS 16.5000 -44.5000 main 1543 1516 _____________O -1 16.5000 -44.5000 HU 75 12 282
1891266N14330 1891 39 NA NA NOT_NAMED 1891-09-25 15:00:00 TS 16.6499 -45.1499 main 1516 1495 _____________P -1 16.6499 -45.1499 HU 75 13 284
1891266N14330 1891 39 NA NA NOT_NAMED 1891-09-25 18:00:00 TS 16.8000 -45.8000 main 1495 1474 _____________O -1 16.8000 -45.8000 HU 75 12 281
1891266N14330 1891 39 NA NA NOT_NAMED 1891-09-25 21:00:00 TS 16.8849 -46.4228 main 1474 1454 _____________P -1 16.8849 -46.4228 HU 75 12 280
1891266N14330 1891 39 NA NA NOT_NAMED 1891-09-26 00:00:00 TS 17.0000 -47.0000 main 1454 1446 _____________O -1 17.0000 -47.0000 HU 75 11 288
1891266N14330 1891 39 NA NA NOT_NAMED 1891-09-26 03:00:00 TS 17.2348 -47.5224 main 1452 1448 _____________P -1 17.2348 -47.5224 HU 75 11 298
1891266N14330 1891 39 NA NA NOT_NAMED 1891-09-26 06:00:00 TS 17.5000 -48.0000 main 1462 1458 _____________O -1 17.5000 -48.0000 HU 75 10 298
1891266N14330 1891 39 NA NA NOT_NAMED 1891-09-26 09:00:00 TS 17.6998 -48.4503 main 1459 1456 _____________P -1 17.6998 -48.4503 HU 75 9 295
1891266N14330 1891 39 NA NA NOT_NAMED 1891-09-26 12:00:00 TS 17.9000 -48.9000 main 1461 1457 _____________O -1 17.9000 -48.9000 HU 75 10 296
1891266N14330 1891 39 NA NA NOT_NAMED 1891-09-26 15:00:00 TS 18.1500 -49.4000 main 1462 1462 _____________P -1 18.1500 -49.4000 HU 75 11 298
1891266N14330 1891 39 NA NA NOT_NAMED 1891-09-26 18:00:00 TS 18.4000 -49.9000 main 1472 1451 _____________O -1 18.4000 -49.9000 HU 75 10 297
1891266N14330 1891 39 NA NA NOT_NAMED 1891-09-26 21:00:00 TS 18.6149 -50.3651 main 1442 1422 _____________P -1 18.6149 -50.3651 HU 75 9 295
1891266N14330 1891 39 NA NA NOT_NAMED 1891-09-27 00:00:00 TS 18.8000 -50.8000 main 1422 1396 _____________O -1 18.8000 -50.8000 HU 75 9 293
1891266N14330 1891 39 NA NA NOT_NAMED 1891-09-27 03:00:00 TS 18.9574 -51.2151 main 1403 1379 _____________P -1 18.9574 -51.2151 HU 75 8 292
1891266N14330 1891 39 NA NA NOT_NAMED 1891-09-27 06:00:00 TS 19.1000 -51.6000 main 1379 1363 _____________O -1 19.1000 -51.6000 HU 75 8 293
1891266N14330 1891 39 NA NA NOT_NAMED 1891-09-27 09:00:00 TS 19.2499 -51.9576 main 1356 1348 _____________P -1 19.2499 -51.9576 HU 75 7 294
1891266N14330 1891 39 NA NA NOT_NAMED 1891-09-27 12:00:00 TS 19.4000 -52.3000 main 1348 1334 _____________O -1 19.4000 -52.3000 HU 75 7 295
1891266N14330 1891 39 NA NA NOT_NAMED 1891-09-27 15:00:00 TS 19.5499 -52.6426 main 1334 1321 _____________P -1 19.5499 -52.6426 HU 75 7 294
1891266N14330 1891 39 NA NA NOT_NAMED 1891-09-27 18:00:00 TS 19.7000 -53.0000 main 1323 1291 _____________O -1 19.7000 -53.0000 HU 75 8 291
1891266N14330 1891 39 NA NA NOT_NAMED 1891-09-27 21:00:00 TS 19.8275 -53.4002 main 1291 1251 _____________P -1 19.8275 -53.4002 HU 75 8 292
1891266N14330 1891 39 NA NA NOT_NAMED 1891-09-28 00:00:00 TS 20.0000 -53.8000 main 1251 1223 _____________O -1 20.0000 -53.8000 HU 75 8 303
1891266N14330 1891 39 NA NA NOT_NAMED 1891-09-28 03:00:00 TS 20.2849 -54.1575 main 1214 1188 _____________P -1 20.2849 -54.1575 HU 75 9 312
1891266N14330 1891 39 NA NA NOT_NAMED 1891-09-28 06:00:00 TS 20.6000 -54.5000 main 1188 1162 _____________O -1 20.6000 -54.5000 HU 75 9 311
1891266N14330 1891 39 NA NA NOT_NAMED 1891-09-28 09:00:00 TS 20.8499 -54.8502 main 1152 1129 _____________P -1 20.8499 -54.8502 HU 75 8 307
1891266N14330 1891 39 NA NA NOT_NAMED 1891-09-28 12:00:00 TS 21.1000 -55.2000 main 1129 1104 _____________O -1 21.1000 -55.2000 HU 75 9 310
1891266N14330 1891 39 NA NA NOT_NAMED 1891-09-28 15:00:00 TS 21.4000 -55.5575 main 1097 1077 _____________P -1 21.4000 -55.5575 HU 75 9 313
1891266N14330 1891 39 NA NA NOT_NAMED 1891-09-28 18:00:00 TS 21.7000 -55.9000 main 1077 1056 _____________O -1 21.7000 -55.9000 HU 75 8 311
1891266N14330 1891 39 NA NA NOT_NAMED 1891-09-28 21:00:00 TS 21.9425 -56.2227 main 1056 1039 _____________P -1 21.9425 -56.2227 HU 75 8 312
1891266N14330 1891 39 NA NA NOT_NAMED 1891-09-29 00:00:00 TS 22.2000 -56.5000 main 1039 1029 _____________O -1 22.2000 -56.5000 HU 75 8 322
1891266N14330 1891 39 NA NA NOT_NAMED 1891-09-29 03:00:00 TS 22.5349 -56.7151 main 1033 1033 _____________P -1 22.5349 -56.7151 HU 75 3 96
1891266N14330 1891 39 NA NA NOT_NAMED 1891-09-29 06:00:00 TS 22.1667 -56.1333 35 hurdat_atl main 1077 1073 O____________O hurdat_atl AL061891 20.7000 -54.6000 TS 35 0 22.9000 -56.9000 HU 75 9 119
1891266N14330 1891 39 NA NA NOT_NAMED 1891-09-29 09:00:00 TS 22.0962 -55.8663 main 1092 1092 P____________P AL061891 20.9500 -54.6325 TS 35 0 23.2425 -57.1001 HU 75 4 91
1891266N14330 1891 39 NA NA NOT_NAMED 1891-09-29 12:00:00 TS 22.1600 -55.7400 35 hurdat_atl main 1116 1116 O____________O hurdat_atl AL061891 21.2000 -54.7000 TS 35 0 23.6000 -57.3000 HU 75 2 33
1891266N14330 1891 39 NA NA NOT_NAMED 1891-09-29 15:00:00 TS 22.3025 -55.7208 main 1119 1109 P____________P AL061891 21.4500 -54.8275 TS 37 0 24.0075 -57.5075 HU 77 5 341
1891266N14330 1891 39 NA NA NOT_NAMED 1891-09-29 18:00:00 TS 22.6000 -55.9000 40 hurdat_atl main 1113 1103 O____________O hurdat_atl AL061891 21.7000 -55.0000 TS 40 0 24.4000 -57.7000 HU 80 7 330
1891266N14330 1891 39 NA NA NOT_NAMED 1891-09-29 21:00:00 TS 22.8692 -56.0809 main 1108 1100 P____________P AL061891 21.9425 -55.1926 TS 42 0 24.7225 -57.8577 HU 80 6 328
1891266N14330 1891 39 NA NA NOT_NAMED 1891-09-30 00:00:00 TS 23.1333 -56.2667 45 hurdat_atl main 1100 1100 O____________O hurdat_atl AL061891 22.2000 -55.4000 TS 45 0 25.0000 -58.0000 HU 80 7 328
1891266N14330 1891 39 NA NA NOT_NAMED 1891-09-30 03:00:00 TS 23.4192 -56.4525 main 1097 1097 P____________P AL061891 22.5000 -55.6000 TS 45 0 25.2575 -58.1575 HU 80 7 329
1891266N14330 1891 39 NA NA NOT_NAMED 1891-09-30 06:00:00 TS 23.7000 -56.6333 45 hurdat_atl main 1105 1096 O____________O hurdat_atl AL061891 22.8000 -55.8000 TS 45 0 25.5000 -58.3000 HU 80 6 329
1891266N14330 1891 39 NA NA NOT_NAMED 1891-09-30 09:00:00 TS 23.9550 -56.8001 main 1105 1097 P____________P AL061891 23.0575 -56.0001 TS 47 0 25.7500 -58.4001 HU 80 6 329
1891266N14330 1891 39 NA NA NOT_NAMED 1891-09-30 12:00:00 TS 24.2000 -56.9667 50 hurdat_atl main 1101 1099 O____________O hurdat_atl AL061891 23.3000 -56.2000 TS 50 0 26.0000 -58.5000 HU 80 6 327
1891266N14330 1891 39 NA NA NOT_NAMED 1891-09-30 15:00:00 TS 24.4450 -57.1451 main 1105 1102 P____________P AL061891 23.5424 -56.3927 TS 50 0 26.2500 -58.6500 HU 80 6 326
1891266N14330 1891 39 NA NA NOT_NAMED 1891-09-30 18:00:00 TS 24.7000 -57.3333 50 hurdat_atl main 1109 1101 O____________O hurdat_atl AL061891 23.8000 -56.6000 TS 50 0 26.5000 -58.8000 HU 80 6 328
1891266N14330 1891 39 NA NA NOT_NAMED 1891-09-30 21:00:00 TS 24.9858 -57.5234 main 1114 1107 P____________P AL061891 24.1000 -56.8425 TS 52 0 26.7574 -58.8852 HU 80 7 327
1891266N14330 1891 39 NA NA NOT_NAMED 1891-10-01 00:00:00 TS 25.2667 -57.7333 55 hurdat_atl main 1121 1114 O____________O hurdat_atl AL061891 24.4000 -57.1000 TS 55 0 27.0000 -59.0000 HU 80 7 322
1891266N14330 1891 39 NA NA NOT_NAMED 1891-10-01 03:00:00 TS 25.5025 -57.9735 main 1114 1114 P____________P AL061891 24.6499 -57.3427 TS 57 0 27.2076 -59.2350 HU 80 7 316
1891266N14330 1891 39 NA NA NOT_NAMED 1891-10-01 06:00:00 TS 25.7333 -58.2333 60 hurdat_atl main 1116 1116 O____________O hurdat_atl AL061891 24.9000 -57.6000 TS 60 0 27.4000 -59.5000 HU 80 7 317
1891266N14330 1891 39 NA NA NOT_NAMED 1891-10-01 09:00:00 TS 25.9924 -58.4877 main 1120 1120 P____________P AL061891 25.1924 -57.8777 TS 60 0 27.5924 -59.7077 HU 80 7 318
1891266N14330 1891 39 NA NA NOT_NAMED 1891-10-01 12:00:00 TS 26.2667 -58.7667 60 hurdat_atl main 1125 1119 O____________O hurdat_atl AL061891 25.5000 -58.2000 TS 60 0 27.8000 -59.9000 HU 80 8 316
1891266N14330 1891 39 NA NA NOT_NAMED 1891-10-01 15:00:00 TS 26.5550 -59.0950 main 1133 1127 P____________P AL061891 25.8076 -58.5925 TS 62 0 28.0500 -60.1000 HU 80 8 314
1891266N14330 1891 39 NA NA NOT_NAMED 1891-10-01 18:00:00 TS 26.8333 -59.4333 65 hurdat_atl main 1133 1128 O____________O hurdat_atl AL061891 26.1000 -59.0000 HU 65 1 28.3000 -60.3000 HU 80 8 312
1891266N14330 1891 39 NA NA NOT_NAMED 1891-10-01 21:00:00 TS 27.0741 -59.7361 main 1144 1138 P____________P AL061891 26.3574 -59.3578 HU 67 1 28.5074 -60.4927 HU 82 7 311
1891266N14330 1891 39 NA NA NOT_NAMED 1891-10-02 00:00:00 TS 27.3000 -60.0333 70 hurdat_atl main 1147 1142 O____________O hurdat_atl AL061891 26.6000 -59.7000 HU 70 1 28.7000 -60.7000 HU 85 7 310
1891266N14330 1891 39 NA NA NOT_NAMED 1891-10-02 03:00:00 TS 27.5282 -60.3402 main 1152 1147 P____________P AL061891 26.8423 -60.0353 HU 72 1 28.9000 -60.9500 HU 85 7 310
1891266N14330 1891 39 NA NA NOT_NAMED 1891-10-02 06:00:00 TS 27.7667 -60.6667 75 hurdat_atl main 1163 1159 O____________O hurdat_atl AL061891 27.1000 -60.4000 HU 75 1 29.1000 -61.2000 HU 85 8 309
1891266N14330 1891 39 NA NA NOT_NAMED 1891-10-02 09:00:00 TS 28.0284 -61.0333 main 1171 1167 P____________P AL061891 27.3926 -60.8499 HU 77 1 29.2999 -61.4002 HU 87 8 309
1891266N14330 1891 39 NA NA NOT_NAMED 1891-10-02 12:00:00 TS 28.3000 -61.4000 80 hurdat_atl main 1186 1182 O____________O hurdat_atl AL061891 27.7000 -61.3000 HU 80 1 29.5000 -61.6000 HU 90 8 311
1891266N14330 1891 39 NA NA NOT_NAMED 1891-10-02 15:00:00 TS 28.5665 -61.7269 main 1207 1203 P____________P AL061891 27.9998 -61.6653 HU 80 1 29.7000 -61.8500 HU 90 8 314
1891266N14330 1891 39 NA NA NOT_NAMED 1891-10-02 18:00:00 TS 28.8333 -62.0333 80 hurdat_atl main 1218 1215 O____________O hurdat_atl AL061891 28.3000 -62.0000 HU 80 1 29.9000 -62.1000 HU 90 8 315
1891266N14330 1891 39 NA NA NOT_NAMED 1891-10-02 21:00:00 TS 29.1024 -62.3335 main 1241 1239 P____________P AL061891 28.6074 -62.3501 HU 82 1 30.0924 -62.3002 HU 90 7 315
1891266N14330 1891 39 NA NA NOT_NAMED 1891-10-03 00:00:00 TS 29.3667 -62.6333 85 hurdat_atl main 1266 1263 O____________O hurdat_atl AL061891 28.9000 -62.7000 HU 85 2 30.3000 -62.5000 HU 90 7 314
1891266N14330 1891 39 NA NA NOT_NAMED 1891-10-03 03:00:00 TS 29.6166 -62.9527 main 1279 1279 P____________P AL061891 29.1500 -63.0578 HU 85 2 30.5500 -62.7425 HU 90 7 312
1891266N14330 1891 39 NA NA NOT_NAMED 1891-10-03 06:00:00 TS 29.8667 -63.2667 85 hurdat_atl main 1305 1284 O____________O hurdat_atl AL061891 29.4000 -63.4000 HU 85 2 30.8000 -63.0000 HU 90 7 314
1891266N14330 1891 39 NA NA NOT_NAMED 1891-10-03 09:00:00 TS 30.1182 -63.5553 main 1276 1242 P____________P AL061891 29.6774 -63.7078 HU 85 2 31.0000 -63.2502 HU 90 7 317
1891266N14330 1891 39 NA NA NOT_NAMED 1891-10-03 12:00:00 TS 30.4000 -63.8333 85 hurdat_atl main 1242 1200 O____________O hurdat_atl AL061891 30.0000 -64.0000 HU 85 2 31.2000 -63.5000 HU 90 8 322
1891266N14330 1891 39 NA NA NOT_NAMED 1891-10-03 15:00:00 TS 30.7299 -64.1070 main 1200 1152 P____________P AL061891 30.3698 -64.2855 HU 85 2 31.4500 -63.7500 HU 90 9 325
1891266N14330 1891 39 NA NA NOT_NAMED 1891-10-03 18:00:00 TS 31.1000 -64.4000 85 hurdat_atl main 1152 1105 O____________O hurdat_atl AL061891 30.8000 -64.6000 HU 85 2 31.7000 -64.0000 HU 90 9 324
1891266N14330 1891 39 NA NA NOT_NAMED 1891-10-03 21:00:00 TS 31.4825 -64.7426 main 1105 1051 P____________P AL061891 31.2926 -64.9997 HU 85 2 31.8623 -64.2283 HU 87 10 323
1891266N14330 1891 39 NA NA NOT_NAMED 1891-10-04 00:00:00 TS 31.9000 -65.1000 85 hurdat_atl main 1051 1006 O____________O hurdat_atl AL061891 31.8000 -65.4000 HU 85 2 32.1000 -64.5000 HU 85 11 326
1891266N14330 1891 39 NA NA NOT_NAMED 1891-10-04 03:00:00 TS 32.3640 -65.4311 main 1001 957 P____________P AL061891 32.2647 -65.7081 HU 85 2 32.5626 -64.8771 HU 85 11 329
1891266N14330 1891 39 NA NA NOT_NAMED 1891-10-04 06:00:00 TS 32.8333 -65.7667 85 hurdat_atl main 949 906 O____________O hurdat_atl AL061891 32.7000 -66.0000 HU 85 2 33.1000 -65.3000 HU 85 11 326
1891266N14330 1891 39 NA NA NOT_NAMED 1891-10-04 09:00:00 TS 33.2425 -66.1314 main 906 856 P____________P AL061891 33.0849 -66.3357 HU 85 2 33.5575 -65.7227 HU 85 10 324
1891266N14330 1891 39 NA NA NOT_NAMED 1891-10-04 12:00:00 TS 33.6667 -66.5000 85 hurdat_atl main 852 810 O____________O hurdat_atl AL061891 33.5000 -66.7000 HU 85 2 34.0000 -66.1000 HU 85 11 327
1891266N14330 1891 39 NA NA NOT_NAMED 1891-10-04 15:00:00 TS 34.1883 -66.8648 main 801 761 P____________P AL061891 34.0576 -67.1069 HU 85 2 34.4498 -66.3805 HU 85 12 331
1891266N14330 1891 39 NA NA NOT_NAMED 1891-10-04 18:00:00 TS 34.7000 -67.2000 85 hurdat_atl main 761 726 O____________O hurdat_atl AL061891 34.6000 -67.5000 HU 85 2 34.9000 -66.6000 HU 85 10 331
1891266N14330 1891 39 NA NA NOT_NAMED 1891-10-04 21:00:00 TS 35.0781 -67.4752 main 726 704 P____________P AL061891 34.9423 -67.8163 HU 85 2 35.3498 -66.7931 HU 85 9 330
1891266N14330 1891 39 NA NA NOT_NAMED 1891-10-05 00:00:00 TS 35.4667 -67.7333 85 hurdat_atl main 703 665 O____________O hurdat_atl AL061891 35.3000 -68.1000 HU 85 2 35.8000 -67.0000 HU 85 10 332
1891266N14330 1891 39 NA NA NOT_NAMED 1891-10-05 03:00:00 TS 35.9793 -68.0627 main 652 593 P____________P AL061891 35.8401 -68.4368 HU 85 2 36.2577 -67.3145 HU 85 12 336
1891266N14330 1891 39 NA NA NOT_NAMED 1891-10-05 06:00:00 TS 36.5667 -68.3333 85 hurdat_atl main 583 524 O____________O hurdat_atl AL061891 36.5000 -68.7000 HU 85 2 36.7000 -67.6000 HU 85 12 343
1891266N14330 1891 39 NA NA NOT_NAMED 1891-10-05 09:00:00 TS 37.1247 -68.5082 main 524 452 P____________P AL061891 37.1971 -68.8680 HU 80 1 36.9798 -67.7887 HU 85 13 355
1891266N14330 1891 39 NA NA NOT_NAMED 1891-10-05 12:00:00 TS 37.8333 -68.4667 75 hurdat_atl main 452 363 O____________O hurdat_atl AL061891 38.0000 -68.8000 HU 75 1 37.5000 -67.8000 HU 85 971 17 7
1891266N14330 1891 39 NA NA NOT_NAMED 1891-10-05 15:00:00 TS 38.7939 -68.2328 main 356 283 P____________P AL061891 38.8653 -68.5110 HU 70 1 38.6510 -67.6764 HU 80 22 18
1891266N14330 1891 39 NA NA NOT_NAMED 1891-10-05 18:00:00 TS 39.9333 -67.6000 65 hurdat_atl main 283 274 O____________O hurdat_atl AL061891 39.9000 -67.8000 HU 65 1 40.0000 -67.2000 HU 75 27 30
1891266N14330 1891 39 NA NA NOT_NAMED 1891-10-05 21:00:00 TS 41.0876 -66.4864 main 274 134 P____________P AL061891 41.1333 -66.5795 HU 60 0 40.9963 -66.3004 HU 70 31 39
1891266N14330 1891 39 NA NA NOT_NAMED 1891-10-06 00:00:00 MX 42.3667 -65.0000 55 hurdat_atl main 124 67 O____________O hurdat_atl AL061891 42.5000 -65.0000 EX 55 -4 42.1000 -65.0000 HU 65 36 39
1891266N14330 1891 39 NA NA NOT_NAMED 1891-10-06 03:00:00 MX 43.8726 -63.3794 main 57 0 P____________P AL061891 43.9512 -63.3613 EX 52 -4 43.7156 -63.4155 HU 62 38 40
1891266N14330 1891 39 NA NA NOT_NAMED 1891-10-06 06:00:00 ET 45.3000 -61.6000 50 hurdat_atl main 0 0 O____________O hurdat_atl AL061891 45.3000 -61.6000 EX 50 -4 45.3000 -61.6000 EX 60 36 45
1891266N14330 1891 39 NA NA NOT_NAMED 1891-10-06 09:00:00 ET 46.3790 -59.7721 main 22 22 P____________P AL061891 46.3691 -59.7730 EX 50 -4 46.3989 -59.7703 EX 60 31 53
1891266N14330 1891 39 NA NA NOT_NAMED 1891-10-06 12:00:00 ET 47.2000 -58.0000 50 hurdat_atl main 49 0 O____________O hurdat_atl AL061891 47.2000 -58.0000 EX 50 -4 47.2000 -58.0000 EX 60 27 57
1891266N14330 1891 39 NA NA NOT_NAMED 1891-10-06 15:00:00 ET 47.8483 -56.4100 main 0 0 P____________P AL061891 47.8483 -56.4100 EX 50 -4 47.8483 -56.4100 EX 60 24 60
1891266N14330 1891 39 NA NA NOT_NAMED 1891-10-06 18:00:00 ET 48.4000 -54.9000 50 hurdat_atl main 0 0 O____________O hurdat_atl AL061891 48.4000 -54.9000 EX 50 -4 48.4000 -54.9000 EX 60 24 60
1891266N14330 1891 39 NA NA NOT_NAMED 1891-10-06 21:00:00 ET 49.0128 -53.3126 main 18 18 P____________P AL061891 49.0128 -53.3126 EX 50 -4 49.0128 -53.3126 EX 60 24 60
1891266N14330 1891 39 NA NA NOT_NAMED 1891-10-07 00:00:00 ET 49.6000 -51.7000 50 hurdat_atl main 133 133 O____________O hurdat_atl AL061891 49.6000 -51.7000 EX 50 -4 49.6000 -51.7000 EX 60 24 62
1891266N14330 1891 39 NA NA NOT_NAMED 1891-10-07 03:00:00 ET 50.1126 -50.0601 main 259 259 P____________P AL061891 50.1126 -50.0601 EX 50 -4 50.1126 -50.0601 EX 60 23 65
1891266N14330 1891 39 NA NA NOT_NAMED 1891-10-07 06:00:00 ET 50.6000 -48.4000 50 hurdat_atl main 390 390 O____________O hurdat_atl AL061891 50.6000 -48.4000 EX 50 -4 50.6000 -48.4000 EX 60 23 65
1891266N14330 1891 39 NA NA NOT_NAMED 1891-10-07 09:00:00 ET 51.1047 -46.7194 main 521 521 P____________P AL061891 51.1047 -46.7194 EX 50 -4 51.1047 -46.7194 EX 60 23 65
1891266N14330 1891 39 NA NA NOT_NAMED 1891-10-07 12:00:00 ET 51.6000 -45.0000 50 hurdat_atl main 650 650 O____________O hurdat_atl AL061891 51.6000 -45.0000 EX 50 -4 51.6000 -45.0000 EX 60 23 66
1891266N14330 1891 39 NA NA NOT_NAMED 1891-10-07 15:00:00 ET 52.0537 -43.2471 main 784 784 P____________P AL061891 52.0537 -43.2471 EX 50 -4 52.0537 -43.2471 EX 55 24 68
1891266N14330 1891 39 NA NA NOT_NAMED 1891-10-07 18:00:00 ET 52.5000 -41.4000 50 hurdat_atl main 848 822 O____________O hurdat_atl AL061891 52.5000 -41.4000 EX 50 -4 52.5000 -41.4000 EX 50 25 69
1891266N14330 1891 39 NA NA NOT_NAMED 1891-10-07 21:00:00 ET 52.9555 -39.3926 main 817 813 P____________P AL061891 52.9555 -39.3926 EX 50 -4 52.9555 -39.3926 EX 50 26 70
1891266N14330 1891 39 NA NA NOT_NAMED 1891-10-08 00:00:00 ET 53.4000 -37.3000 50 hurdat_atl main 820 820 O____________O hurdat_atl AL061891 53.4000 -37.3000 EX 50 -4 53.4000 -37.3000 EX 50 26 72
1891266N14330 1891 39 NA NA NOT_NAMED 1891-10-08 03:00:00 ET 53.7915 -35.1571 main 843 843 P____________P AL061891 53.7915 -35.1571 EX 50 -4 53.7915 -35.1571 EX 50 26 72
1891266N14330 1891 39 NA NA NOT_NAMED 1891-10-08 06:00:00 ET 54.2000 -33.1000 50 hurdat_atl main 884 884 O____________O hurdat_atl AL061891 54.2000 -33.1000 EX 50 -4 54.2000 -33.1000 EX 50 24 70
1891266N14330 1891 39 NA NA NOT_NAMED 1891-10-08 09:00:00 ET 54.6341 -31.2736 main 928 924 P____________P AL061891 54.6341 -31.2736 EX 50 -4 54.6341 -31.2736 EX 50 23 64
1891266N14330 1891 39 NA NA NOT_NAMED 1891-10-08 12:00:00 ET 55.2000 -29.5000 50 hurdat_atl main 967 916 O____________O hurdat_atl AL061891 55.2000 -29.5000 EX 50 -4 55.2000 -29.5000 EX 50 25 58
1891266N14330 1891 39 NA NA NOT_NAMED 1891-10-08 15:00:00 ET 55.9537 -27.5789 main 904 790 P____________P AL061891 55.9537 -27.5789 EX 47 -4 55.9537 -27.5789 EX 47 27 54
1891266N14330 1891 39 NA NA NOT_NAMED 1891-10-08 18:00:00 ET 56.8000 -25.5000 45 hurdat_atl main 789 O____________O hurdat_atl AL061891 56.8000 -25.5000 EX 45 -4 56.8000 -25.5000 EX 45 28 53

IBTrACS Databaseについて

本データベースは、米国NOAAが公開する1842年以降の世界の熱帯低気圧のベストトラックデータアーカイブInternational Best Track Archive for Climate Stewardship (IBTrACS)を、ウェブで閲覧しやすい形式に変換したものです。

最終更新日:2021-10-21